sensor_id;sensor_type;location;lat;lon;timestamp;temperature;humidity
4487;DHT22;2256;48.740;9.106;2022-09-21T00:00:38;6.30;99.90
4487;DHT22;2256;48.740;9.106;2022-09-21T00:03:05;6.20;99.90
4487;DHT22;2256;48.740;9.106;2022-09-21T00:05:33;6.20;99.90
4487;DHT22;2256;48.740;9.106;2022-09-21T00:08:00;6.20;99.90
4487;DHT22;2256;48.740;9.106;2022-09-21T00:10:29;6.20;99.90
4487;DHT22;2256;48.740;9.106;2022-09-21T00:12:57;6.20;99.90
4487;DHT22;2256;48.740;9.106;2022-09-21T00:15:25;6.20;99.90
4487;DHT22;2256;48.740;9.106;2022-09-21T00:17:53;6.20;99.90
4487;DHT22;2256;48.740;9.106;2022-09-21T00:20:21;6.20;99.90
4487;DHT22;2256;48.740;9.106;2022-09-21T00:22:47;6.00;99.90
4487;DHT22;2256;48.740;9.106;2022-09-21T00:25:15;6.00;99.90
4487;DHT22;2256;48.740;9.106;2022-09-21T00:27:43;6.00;99.90
4487;DHT22;2256;48.740;9.106;2022-09-21T00:30:13;6.00;99.90
4487;DHT22;2256;48.740;9.106;2022-09-21T00:32:40;6.00;99.90
4487;DHT22;2256;48.740;9.106;2022-09-21T00:35:07;5.90;99.90
4487;DHT22;2256;48.740;9.106;2022-09-21T00:37:34;5.90;99.90
4487;DHT22;2256;48.740;9.106;2022-09-21T00:40:02;5.90;99.90
4487;DHT22;2256;48.740;9.106;2022-09-21T00:42:30;5.80;99.90
4487;DHT22;2256;48.740;9.106;2022-09-21T00:44:59;5.70;99.90
4487;DHT22;2256;48.740;9.106;2022-09-21T00:47:29;5.70;99.90
4487;DHT22;2256;48.740;9.106;2022-09-21T00:50:00;5.70;99.90
4487;DHT22;2256;48.740;9.106;2022-09-21T00:52:30;5.80;99.90
4487;DHT22;2256;48.740;9.106;2022-09-21T00:55:02;5.80;99.90
4487;DHT22;2256;48.740;9.106;2022-09-21T00:57:30;5.90;99.90
4487;DHT22;2256;48.740;9.106;2022-09-21T01:00:03;5.80;99.90
4487;DHT22;2256;48.740;9.106;2022-09-21T01:02:30;5.80;99.90
4487;DHT22;2256;48.740;9.106;2022-09-21T01:04:57;5.80;99.90
4487;DHT22;2256;48.740;9.106;2022-09-21T01:07:26;5.80;99.90
4487;DHT22;2256;48.740;9.106;2022-09-21T01:09:56;5.70;99.90
4487;DHT22;2256;48.740;9.106;2022-09-21T01:12:35;5.70;99.90
4487;DHT22;2256;48.740;9.106;2022-09-21T01:15:15;5.70;99.90
4487;DHT22;2256;48.740;9.106;2022-09-21T01:17:48;5.70;99.90
4487;DHT22;2256;48.740;9.106;2022-09-21T01:20:33;5.60;99.90
4487;DHT22;2256;48.740;9.106;2022-09-21T01:23:13;5.70;99.90
4487;DHT22;2256;48.740;9.106;2022-09-21T01:25:57;5.70;99.90
4487;DHT22;2256;48.740;9.106;2022-09-21T01:31:12;5.70;99.90
4487;DHT22;2256;48.740;9.106;2022-09-21T01:33:44;5.60;99.90
4487;DHT22;2256;48.740;9.106;2022-09-21T01:36:14;5.70;99.90
4487;DHT22;2256;48.740;9.106;2022-09-21T01:38:44;5.60;99.90
4487;DHT22;2256;48.740;9.106;2022-09-21T01:41:16;5.50;99.90
4487;DHT22;2256;48.740;9.106;2022-09-21T01:43:48;5.50;99.90
4487;DHT22;2256;48.740;9.106;2022-09-21T01:46:19;5.50;99.90
4487;DHT22;2256;48.740;9.106;2022-09-21T01:48:50;5.40;99.90
4487;DHT22;2256;48.740;9.106;2022-09-21T01:51:19;5.30;99.90
4487;DHT22;2256;48.740;9.106;2022-09-21T01:53:51;5.30;99.90
4487;DHT22;2256;48.740;9.106;2022-09-21T01:56:21;5.30;99.90
4487;DHT22;2256;48.740;9.106;2022-09-21T01:58:53;5.30;99.90
4487;DHT22;2256;48.740;9.106;2022-09-21T02:01:25;5.30;99.90
4487;DHT22;2256;48.740;9.106;2022-09-21T02:03:57;5.40;99.90
4487;DHT22;2256;48.740;9.106;2022-09-21T02:06:26;5.30;99.90
4487;DHT22;2256;48.740;9.106;2022-09-21T02:08:54;5.30;99.90
4487;DHT22;2256;48.740;9.106;2022-09-21T02:11:21;5.20;99.90
4487;DHT22;2256;48.740;9.106;2022-09-21T02:13:51;5.30;99.90
4487;DHT22;2256;48.740;9.106;2022-09-21T02:16:30;5.20;99.90
4487;DHT22;2256;48.740;9.106;2022-09-21T02:19:13;5.30;99.90
4487;DHT22;2256;48.740;9.106;2022-09-21T02:21:56;5.20;99.90
4487;DHT22;2256;48.740;9.106;2022-09-21T02:24:34;5.20;99.90
4487;DHT22;2256;48.740;9.106;2022-09-21T02:27:04;5.20;99.90
4487;DHT22;2256;48.740;9.106;2022-09-21T02:29:40;5.10;99.90
4487;DHT22;2256;48.740;9.106;2022-09-21T02:32:20;5.10;99.90
4487;DHT22;2256;48.740;9.106;2022-09-21T02:34:52;5.10;99.90
4487;DHT22;2256;48.740;9.106;2022-09-21T02:37:26;5.00;99.90
4487;DHT22;2256;48.740;9.106;2022-09-21T02:40:00;4.90;99.90
4487;DHT22;2256;48.740;9.106;2022-09-21T02:42:31;4.90;99.90
4487;DHT22;2256;48.740;9.106;2022-09-21T02:45:06;5.00;99.90
4487;DHT22;2256;48.740;9.106;2022-09-21T02:47:38;5.00;99.90
4487;DHT22;2256;48.740;9.106;2022-09-21T02:50:11;5.00;99.90
4487;DHT22;2256;48.740;9.106;2022-09-21T02:52:41;5.00;99.90
4487;DHT22;2256;48.740;9.106;2022-09-21T02:55:09;5.00;99.90
4487;DHT22;2256;48.740;9.106;2022-09-21T02:57:37;5.00;99.90
4487;DHT22;2256;48.740;9.106;2022-09-21T03:00:05;5.00;99.90
4487;DHT22;2256;48.740;9.106;2022-09-21T03:02:38;5.00;99.90
4487;DHT22;2256;48.740;9.106;2022-09-21T03:05:06;4.90;99.90
4487;DHT22;2256;48.740;9.106;2022-09-21T03:07:33;4.90;99.90
4487;DHT22;2256;48.740;9.106;2022-09-21T03:10:00;4.90;99.90
4487;DHT22;2256;48.740;9.106;2022-09-21T03:12:27;4.90;99.90
4487;DHT22;2256;48.740;9.106;2022-09-21T03:14:55;5.00;99.90
4487;DHT22;2256;48.740;9.106;2022-09-21T03:17:22;4.90;99.90
4487;DHT22;2256;48.740;9.106;2022-09-21T03:19:50;4.90;99.90
4487;DHT22;2256;48.740;9.106;2022-09-21T03:22:19;4.80;99.90
4487;DHT22;2256;48.740;9.106;2022-09-21T03:24:46;4.90;99.90
4487;DHT22;2256;48.740;9.106;2022-09-21T03:27:14;4.90;99.90
4487;DHT22;2256;48.740;9.106;2022-09-21T03:29:41;4.80;99.90
4487;DHT22;2256;48.740;9.106;2022-09-21T03:32:07;4.70;99.90
4487;DHT22;2256;48.740;9.106;2022-09-21T03:34:35;4.60;99.90
4487;DHT22;2256;48.740;9.106;2022-09-21T03:37:04;4.70;99.90
4487;DHT22;2256;48.740;9.106;2022-09-21T03:39:32;4.60;99.90
4487;DHT22;2256;48.740;9.106;2022-09-21T03:41:59;4.70;99.90
4487;DHT22;2256;48.740;9.106;2022-09-21T03:44:26;4.60;99.90
4487;DHT22;2256;48.740;9.106;2022-09-21T03:46:53;4.60;99.90
4487;DHT22;2256;48.740;9.106;2022-09-21T03:49:21;4.60;99.90
4487;DHT22;2256;48.740;9.106;2022-09-21T03:51:48;4.70;99.90
4487;DHT22;2256;48.740;9.106;2022-09-21T03:54:16;4.70;99.90
4487;DHT22;2256;48.740;9.106;2022-09-21T03:56:42;4.70;99.90
4487;DHT22;2256;48.740;9.106;2022-09-21T03:59:09;4.70;99.90
4487;DHT22;2256;48.740;9.106;2022-09-21T04:01:36;4.70;99.90
4487;DHT22;2256;48.740;9.106;2022-09-21T04:04:03;4.70;99.90
4487;DHT22;2256;48.740;9.106;2022-09-21T04:06:29;4.70;99.90
4487;DHT22;2256;48.740;9.106;2022-09-21T04:08:56;4.80;99.90
4487;DHT22;2256;48.740;9.106;2022-09-21T04:11:26;4.90;99.90
4487;DHT22;2256;48.740;9.106;2022-09-21T04:13:53;4.80;99.90
4487;DHT22;2256;48.740;9.106;2022-09-21T04:16:22;4.80;99.90
4487;DHT22;2256;48.740;9.106;2022-09-21T04:18:48;4.70;99.90
4487;DHT22;2256;48.740;9.106;2022-09-21T04:21:16;4.70;99.90
4487;DHT22;2256;48.740;9.106;2022-09-21T04:23:42;4.80;99.90
4487;DHT22;2256;48.740;9.106;2022-09-21T04:26:19;4.80;99.90
4487;DHT22;2256;48.740;9.106;2022-09-21T04:28:47;4.70;99.90
4487;DHT22;2256;48.740;9.106;2022-09-21T04:31:14;4.70;99.90
4487;DHT22;2256;48.740;9.106;2022-09-21T04:33:41;4.90;99.90
4487;DHT22;2256;48.740;9.106;2022-09-21T04:36:08;4.90;99.90
4487;DHT22;2256;48.740;9.106;2022-09-21T04:38:35;4.80;99.90
4487;DHT22;2256;48.740;9.106;2022-09-21T04:41:02;4.60;99.90
4487;DHT22;2256;48.740;9.106;2022-09-21T04:43:29;4.70;99.90
4487;DHT22;2256;48.740;9.106;2022-09-21T04:45:57;4.70;99.90
4487;DHT22;2256;48.740;9.106;2022-09-21T04:48:24;4.70;99.90
4487;DHT22;2256;48.740;9.106;2022-09-21T04:50:51;4.70;99.90
4487;DHT22;2256;48.740;9.106;2022-09-21T04:53:18;4.70;99.90
4487;DHT22;2256;48.740;9.106;2022-09-21T04:55:45;4.60;99.90
4487;DHT22;2256;48.740;9.106;2022-09-21T04:58:11;4.70;99.90
4487;DHT22;2256;48.740;9.106;2022-09-21T05:00:38;4.60;99.90
4487;DHT22;2256;48.740;9.106;2022-09-21T05:03:06;4.70;99.90
4487;DHT22;2256;48.740;9.106;2022-09-21T05:05:34;4.60;99.90
4487;DHT22;2256;48.740;9.106;2022-09-21T05:08:02;4.50;99.90
4487;DHT22;2256;48.740;9.106;2022-09-21T05:10:29;4.50;99.90
4487;DHT22;2256;48.740;9.106;2022-09-21T05:12:55;4.50;99.90
4487;DHT22;2256;48.740;9.106;2022-09-21T05:15:22;4.70;99.90
4487;DHT22;2256;48.740;9.106;2022-09-21T05:17:49;4.70;99.90
4487;DHT22;2256;48.740;9.106;2022-09-21T05:20:17;4.60;99.90
4487;DHT22;2256;48.740;9.106;2022-09-21T05:22:44;4.60;99.90
4487;DHT22;2256;48.740;9.106;2022-09-21T05:25:11;4.60;99.90
4487;DHT22;2256;48.740;9.106;2022-09-21T05:27:38;4.60;99.90
4487;DHT22;2256;48.740;9.106;2022-09-21T05:30:06;4.60;99.90
4487;DHT22;2256;48.740;9.106;2022-09-21T05:32:41;4.80;99.90
4487;DHT22;2256;48.740;9.106;2022-09-21T05:35:15;4.80;99.90
4487;DHT22;2256;48.740;9.106;2022-09-21T05:37:53;4.80;99.90
4487;DHT22;2256;48.740;9.106;2022-09-21T05:40:23;4.80;99.90
4487;DHT22;2256;48.740;9.106;2022-09-21T05:42:50;4.80;99.90
4487;DHT22;2256;48.740;9.106;2022-09-21T05:45:18;4.80;99.90
4487;DHT22;2256;48.740;9.106;2022-09-21T05:47:54;4.80;99.90
4487;DHT22;2256;48.740;9.106;2022-09-21T05:50:39;4.90;99.90
4487;DHT22;2256;48.740;9.106;2022-09-21T05:53:33;5.00;99.90
4487;DHT22;2256;48.740;9.106;2022-09-21T05:56:07;5.10;99.90
4487;DHT22;2256;48.740;9.106;2022-09-21T05:58:42;5.10;99.90
4487;DHT22;2256;48.740;9.106;2022-09-21T06:01:26;5.20;99.90
4487;DHT22;2256;48.740;9.106;2022-09-21T06:03:55;5.30;99.90
4487;DHT22;2256;48.740;9.106;2022-09-21T06:06:23;5.40;99.90
4487;DHT22;2256;48.740;9.106;2022-09-21T06:08:51;5.40;99.90
4487;DHT22;2256;48.740;9.106;2022-09-21T06:11:19;5.30;99.90
4487;DHT22;2256;48.740;9.106;2022-09-21T06:13:45;5.40;99.90
4487;DHT22;2256;48.740;9.106;2022-09-21T06:16:12;5.50;99.90
4487;DHT22;2256;48.740;9.106;2022-09-21T06:18:40;5.60;99.90
4487;DHT22;2256;48.740;9.106;2022-09-21T06:21:07;5.70;99.90
4487;DHT22;2256;48.740;9.106;2022-09-21T06:23:34;5.80;99.90
4487;DHT22;2256;48.740;9.106;2022-09-21T06:26:03;5.90;99.90
4487;DHT22;2256;48.740;9.106;2022-09-21T06:28:29;6.10;99.90
4487;DHT22;2256;48.740;9.106;2022-09-21T06:30:57;6.30;99.90
4487;DHT22;2256;48.740;9.106;2022-09-21T06:33:24;6.50;99.90
4487;DHT22;2256;48.740;9.106;2022-09-21T06:35:52;6.80;99.90
4487;DHT22;2256;48.740;9.106;2022-09-21T06:38:20;7.40;99.90
4487;DHT22;2256;48.740;9.106;2022-09-21T06:40:47;8.10;99.90
4487;DHT22;2256;48.740;9.106;2022-09-21T06:43:15;8.90;99.90
4487;DHT22;2256;48.740;9.106;2022-09-21T06:45:42;10.60;99.90
4487;DHT22;2256;48.740;9.106;2022-09-21T06:48:09;12.70;99.90
4487;DHT22;2256;48.740;9.106;2022-09-21T06:50:36;14.80;99.90
4487;DHT22;2256;48.740;9.106;2022-09-21T06:53:03;16.50;99.90
4487;DHT22;2256;48.740;9.106;2022-09-21T06:55:30;17.20;99.90
4487;DHT22;2256;48.740;9.106;2022-09-21T06:58:00;17.30;98.40
4487;DHT22;2256;48.740;9.106;2022-09-21T07:00:29;16.50;98.60
4487;DHT22;2256;48.740;9.106;2022-09-21T07:02:56;15.60;99.30
4487;DHT22;2256;48.740;9.106;2022-09-21T07:05:23;14.60;99.50
4487;DHT22;2256;48.740;9.106;2022-09-21T07:07:55;13.50;99.90
4487;DHT22;2256;48.740;9.106;2022-09-21T07:10:22;13.00;99.90
4487;DHT22;2256;48.740;9.106;2022-09-21T07:12:49;13.40;99.90
4487;DHT22;2256;48.740;9.106;2022-09-21T07:15:17;14.80;99.90
4487;DHT22;2256;48.740;9.106;2022-09-21T07:17:46;15.30;99.90
4487;DHT22;2256;48.740;9.106;2022-09-21T07:20:13;15.30;99.90
4487;DHT22;2256;48.740;9.106;2022-09-21T07:22:40;14.80;99.90
4487;DHT22;2256;48.740;9.106;2022-09-21T07:25:08;14.00;99.90
4487;DHT22;2256;48.740;9.106;2022-09-21T07:27:35;13.10;99.90
4487;DHT22;2256;48.740;9.106;2022-09-21T07:30:02;12.50;99.90
4487;DHT22;2256;48.740;9.106;2022-09-21T07:32:29;12.10;99.90
4487;DHT22;2256;48.740;9.106;2022-09-21T07:34:57;12.00;99.90
4487;DHT22;2256;48.740;9.106;2022-09-21T07:37:24;12.00;99.90
4487;DHT22;2256;48.740;9.106;2022-09-21T07:39:52;11.70;99.90
4487;DHT22;2256;48.740;9.106;2022-09-21T07:42:20;11.60;99.90
4487;DHT22;2256;48.740;9.106;2022-09-21T07:44:47;11.70;99.90
4487;DHT22;2256;48.740;9.106;2022-09-21T07:47:14;11.50;99.90
4487;DHT22;2256;48.740;9.106;2022-09-21T07:49:41;11.30;99.90
4487;DHT22;2256;48.740;9.106;2022-09-21T07:52:09;11.40;99.90
4487;DHT22;2256;48.740;9.106;2022-09-21T07:54:36;11.70;99.90
4487;DHT22;2256;48.740;9.106;2022-09-21T07:57:03;12.30;99.90
4487;DHT22;2256;48.740;9.106;2022-09-21T07:59:48;13.80;99.90
4487;DHT22;2256;48.740;9.106;2022-09-21T08:02:15;15.70;99.90
4487;DHT22;2256;48.740;9.106;2022-09-21T08:04:41;17.10;99.90
4487;DHT22;2256;48.740;9.106;2022-09-21T08:07:10;16.60;99.10
4487;DHT22;2256;48.740;9.106;2022-09-21T08:09:37;16.20;99.60
4487;DHT22;2256;48.740;9.106;2022-09-21T08:12:05;16.20;99.80
4487;DHT22;2256;48.740;9.106;2022-09-21T08:14:32;16.60;99.90
4487;DHT22;2256;48.740;9.106;2022-09-21T08:16:59;17.80;98.40
4487;DHT22;2256;48.740;9.106;2022-09-21T08:19:26;18.60;97.10
4487;DHT22;2256;48.740;9.106;2022-09-21T08:21:53;19.70;95.90
4487;DHT22;2256;48.740;9.106;2022-09-21T08:24:21;20.40;93.80
4487;DHT22;2256;48.740;9.106;2022-09-21T08:26:48;20.30;93.80
4487;DHT22;2256;48.740;9.106;2022-09-21T08:29:16;20.40;93.30
4487;DHT22;2256;48.740;9.106;2022-09-21T08:31:43;20.30;92.90
4487;DHT22;2256;48.740;9.106;2022-09-21T08:34:11;20.30;92.90
4487;DHT22;2256;48.740;9.106;2022-09-21T08:36:37;20.80;92.00
4487;DHT22;2256;48.740;9.106;2022-09-21T08:39:06;20.70;91.50
4487;DHT22;2256;48.740;9.106;2022-09-21T08:41:51;20.10;91.80
4487;DHT22;2256;48.740;9.106;2022-09-21T08:44:23;19.60;92.80
4487;DHT22;2256;48.740;9.106;2022-09-21T08:46:57;19.90;92.70
4487;DHT22;2256;48.740;9.106;2022-09-21T08:49:28;20.90;92.30
4487;DHT22;2256;48.740;9.106;2022-09-21T08:51:57;21.60;91.30
4487;DHT22;2256;48.740;9.106;2022-09-21T08:54:28;21.40;91.10
4487;DHT22;2256;48.740;9.106;2022-09-21T08:56:57;21.30;90.50
4487;DHT22;2256;48.740;9.106;2022-09-21T08:59:23;20.50;91.00
4487;DHT22;2256;48.740;9.106;2022-09-21T09:01:55;20.40;91.10
4487;DHT22;2256;48.740;9.106;2022-09-21T09:04:43;20.50;91.80
4487;DHT22;2256;48.740;9.106;2022-09-21T09:07:35;20.50;91.00
4487;DHT22;2256;48.740;9.106;2022-09-21T09:10:16;20.70;91.10
4487;DHT22;2256;48.740;9.106;2022-09-21T09:12:55;20.70;91.30
4487;DHT22;2256;48.740;9.106;2022-09-21T09:15:33;20.10;91.80
4487;DHT22;2256;48.740;9.106;2022-09-21T09:18:08;20.80;91.50
4487;DHT22;2256;48.740;9.106;2022-09-21T09:20:39;20.90;90.90
4487;DHT22;2256;48.740;9.106;2022-09-21T09:23:10;21.30;90.00
4487;DHT22;2256;48.740;9.106;2022-09-21T09:25:40;21.50;89.00
4487;DHT22;2256;48.740;9.106;2022-09-21T09:28:20;21.30;89.20
4487;DHT22;2256;48.740;9.106;2022-09-21T09:30:54;21.20;89.30
4487;DHT22;2256;48.740;9.106;2022-09-21T09:33:24;20.80;89.90
4487;DHT22;2256;48.740;9.106;2022-09-21T09:35:54;21.00;89.20
4487;DHT22;2256;48.740;9.106;2022-09-21T09:38:26;21.40;88.60
4487;DHT22;2256;48.740;9.106;2022-09-21T09:41:04;21.50;89.10
4487;DHT22;2256;48.740;9.106;2022-09-21T09:43:42;21.20;87.10
4487;DHT22;2256;48.740;9.106;2022-09-21T09:46:17;21.00;86.60
4487;DHT22;2256;48.740;9.106;2022-09-21T09:49:08;20.60;86.70
4487;DHT22;2256;48.740;9.106;2022-09-21T09:51:38;19.90;90.00
4487;DHT22;2256;48.740;9.106;2022-09-21T09:54:10;19.40;89.40
4487;DHT22;2256;48.740;9.106;2022-09-21T09:56:38;19.10;90.50
4487;DHT22;2256;48.740;9.106;2022-09-21T09:59:13;18.50;90.90
4487;DHT22;2256;48.740;9.106;2022-09-21T10:01:44;18.00;91.00
4487;DHT22;2256;48.740;9.106;2022-09-21T10:04:13;17.70;91.60
4487;DHT22;2256;48.740;9.106;2022-09-21T10:06:41;17.60;92.20
4487;DHT22;2256;48.740;9.106;2022-09-21T10:09:19;17.50;91.70
4487;DHT22;2256;48.740;9.106;2022-09-21T10:11:46;17.10;91.90
4487;DHT22;2256;48.740;9.106;2022-09-21T10:14:18;16.70;92.50
4487;DHT22;2256;48.740;9.106;2022-09-21T10:16:47;16.60;92.60
4487;DHT22;2256;48.740;9.106;2022-09-21T10:19:19;16.80;92.30
4487;DHT22;2256;48.740;9.106;2022-09-21T10:21:47;16.90;92.60
4487;DHT22;2256;48.740;9.106;2022-09-21T10:24:19;16.90;92.10
4487;DHT22;2256;48.740;9.106;2022-09-21T10:26:49;16.50;93.20
4487;DHT22;2256;48.740;9.106;2022-09-21T10:29:30;16.30;93.30
4487;DHT22;2256;48.740;9.106;2022-09-21T10:31:59;16.10;93.50
4487;DHT22;2256;48.740;9.106;2022-09-21T10:34:27;16.10;93.90
4487;DHT22;2256;48.740;9.106;2022-09-21T10:36:56;16.00;93.90
4487;DHT22;2256;48.740;9.106;2022-09-21T10:39:26;15.90;94.20
4487;DHT22;2256;48.740;9.106;2022-09-21T10:41:57;16.10;94.30
4487;DHT22;2256;48.740;9.106;2022-09-21T10:44:32;16.10;94.20
4487;DHT22;2256;48.740;9.106;2022-09-21T10:47:13;16.20;94.00
4487;DHT22;2256;48.740;9.106;2022-09-21T10:49:44;16.20;94.80
4487;DHT22;2256;48.740;9.106;2022-09-21T10:52:13;16.30;93.30
4487;DHT22;2256;48.740;9.106;2022-09-21T10:54:40;16.00;93.50
4487;DHT22;2256;48.740;9.106;2022-09-21T10:57:13;15.80;94.10
4487;DHT22;2256;48.740;9.106;2022-09-21T10:59:43;15.90;94.40
4487;DHT22;2256;48.740;9.106;2022-09-21T11:02:30;16.00;94.90
4487;DHT22;2256;48.740;9.106;2022-09-21T11:05:03;16.30;94.80
4487;DHT22;2256;48.740;9.106;2022-09-21T11:07:36;16.50;93.80
4487;DHT22;2256;48.740;9.106;2022-09-21T11:10:12;16.50;93.10
4487;DHT22;2256;48.740;9.106;2022-09-21T11:12:48;16.40;93.20
4487;DHT22;2256;48.740;9.106;2022-09-21T11:15:28;16.20;92.40
4487;DHT22;2256;48.740;9.106;2022-09-21T11:18:03;16.10;93.70
4487;DHT22;2256;48.740;9.106;2022-09-21T11:20:41;15.70;92.90
4487;DHT22;2256;48.740;9.106;2022-09-21T11:23:20;15.10;93.20
4487;DHT22;2256;48.740;9.106;2022-09-21T11:25:54;15.20;94.50
4487;DHT22;2256;48.740;9.106;2022-09-21T11:28:24;15.50;94.70
4487;DHT22;2256;48.740;9.106;2022-09-21T11:31:11;15.70;94.30
4487;DHT22;2256;48.740;9.106;2022-09-21T11:34:00;15.70;93.80
4487;DHT22;2256;48.740;9.106;2022-09-21T11:36:35;15.80;94.00
4487;DHT22;2256;48.740;9.106;2022-09-21T11:39:10;16.00;93.40
4487;DHT22;2256;48.740;9.106;2022-09-21T11:41:57;16.20;93.40
4487;DHT22;2256;48.740;9.106;2022-09-21T11:44:36;16.40;92.20
4487;DHT22;2256;48.740;9.106;2022-09-21T11:47:16;16.40;92.40
4487;DHT22;2256;48.740;9.106;2022-09-21T11:50:15;16.00;92.50
4487;DHT22;2256;48.740;9.106;2022-09-21T11:52:53;16.00;93.50
4487;DHT22;2256;48.740;9.106;2022-09-21T11:55:39;15.90;94.10
4487;DHT22;2256;48.740;9.106;2022-09-21T11:58:15;16.10;94.30
4487;DHT22;2256;48.740;9.106;2022-09-21T12:00:51;16.30;94.20
4487;DHT22;2256;48.740;9.106;2022-09-21T12:03:43;16.00;93.40
4487;DHT22;2256;48.740;9.106;2022-09-21T12:06:27;15.20;93.60
4487;DHT22;2256;48.740;9.106;2022-09-21T12:09:18;15.00;94.00
4487;DHT22;2256;48.740;9.106;2022-09-21T12:11:59;15.00;93.90
4487;DHT22;2256;48.740;9.106;2022-09-21T12:14:34;14.90;94.30
4487;DHT22;2256;48.740;9.106;2022-09-21T12:17:13;14.80;94.20
4487;DHT22;2256;48.740;9.106;2022-09-21T12:19:49;14.70;94.20
4487;DHT22;2256;48.740;9.106;2022-09-21T12:22:23;14.80;94.40
4487;DHT22;2256;48.740;9.106;2022-09-21T12:24:54;15.00;94.90
4487;DHT22;2256;48.740;9.106;2022-09-21T12:27:26;15.00;93.90
4487;DHT22;2256;48.740;9.106;2022-09-21T12:29:56;14.80;94.10
4487;DHT22;2256;48.740;9.106;2022-09-21T12:32:38;15.00;94.30
4487;DHT22;2256;48.740;9.106;2022-09-21T12:35:15;15.20;93.90
4487;DHT22;2256;48.740;9.106;2022-09-21T12:37:46;15.10;93.40
4487;DHT22;2256;48.740;9.106;2022-09-21T12:40:18;15.00;93.00
4487;DHT22;2256;48.740;9.106;2022-09-21T12:42:57;15.00;92.50
4487;DHT22;2256;48.740;9.106;2022-09-21T12:45:28;14.70;92.90
4487;DHT22;2256;48.740;9.106;2022-09-21T12:48:02;14.50;92.80
4487;DHT22;2256;48.740;9.106;2022-09-21T12:50:37;14.50;93.30
4487;DHT22;2256;48.740;9.106;2022-09-21T12:53:08;14.40;93.00
4487;DHT22;2256;48.740;9.106;2022-09-21T12:55:43;14.50;93.10
4487;DHT22;2256;48.740;9.106;2022-09-21T12:58:29;14.90;93.50
4487;DHT22;2256;48.740;9.106;2022-09-21T13:01:01;15.40;91.70
4487;DHT22;2256;48.740;9.106;2022-09-21T13:03:34;15.20;91.00
4487;DHT22;2256;48.740;9.106;2022-09-21T13:06:22;15.00;92.00
4487;DHT22;2256;48.740;9.106;2022-09-21T13:08:54;14.90;92.50
4487;DHT22;2256;48.740;9.106;2022-09-21T13:11:22;14.80;92.30
4487;DHT22;2256;48.740;9.106;2022-09-21T13:13:50;14.90;92.20
4487;DHT22;2256;48.740;9.106;2022-09-21T13:16:24;14.70;92.10
4487;DHT22;2256;48.740;9.106;2022-09-21T13:18:54;14.80;92.50
4487;DHT22;2256;48.740;9.106;2022-09-21T13:21:25;15.00;92.50
4487;DHT22;2256;48.740;9.106;2022-09-21T13:23:55;15.20;92.50
4487;DHT22;2256;48.740;9.106;2022-09-21T13:26:32;15.60;91.70
4487;DHT22;2256;48.740;9.106;2022-09-21T13:29:27;16.10;91.60
4487;DHT22;2256;48.740;9.106;2022-09-21T13:31:57;16.80;91.10
4487;DHT22;2256;48.740;9.106;2022-09-21T13:34:29;16.70;89.70
4487;DHT22;2256;48.740;9.106;2022-09-21T13:37:24;16.40;90.50
4487;DHT22;2256;48.740;9.106;2022-09-21T13:43:22;15.50;91.30
4487;DHT22;2256;48.740;9.106;2022-09-21T13:45:54;15.10;91.60
4487;DHT22;2256;48.740;9.106;2022-09-21T13:48:23;15.00;92.00
4487;DHT22;2256;48.740;9.106;2022-09-21T13:50:59;14.90;92.30
4487;DHT22;2256;48.740;9.106;2022-09-21T13:53:32;14.90;92.10
4487;DHT22;2256;48.740;9.106;2022-09-21T13:56:04;15.00;92.50
4487;DHT22;2256;48.740;9.106;2022-09-21T13:58:39;15.10;92.40
4487;DHT22;2256;48.740;9.106;2022-09-21T14:01:12;15.30;92.80
4487;DHT22;2256;48.740;9.106;2022-09-21T14:03:44;15.60;92.00
4487;DHT22;2256;48.740;9.106;2022-09-21T14:06:15;15.60;91.60
4487;DHT22;2256;48.740;9.106;2022-09-21T14:08:48;15.30;91.50
4487;DHT22;2256;48.740;9.106;2022-09-21T14:11:19;15.30;92.00
4487;DHT22;2256;48.740;9.106;2022-09-21T14:14:03;15.50;92.00
4487;DHT22;2256;48.740;9.106;2022-09-21T14:16:52;15.90;91.60
4487;DHT22;2256;48.740;9.106;2022-09-21T14:22:41;16.40;90.20
4487;DHT22;2256;48.740;9.106;2022-09-21T14:25:29;16.50;90.50
4487;DHT22;2256;48.740;9.106;2022-09-21T14:28:02;16.40;89.90
4487;DHT22;2256;48.740;9.106;2022-09-21T14:30:33;16.00;89.60
4487;DHT22;2256;48.740;9.106;2022-09-21T14:33:11;15.60;89.30
4487;DHT22;2256;48.740;9.106;2022-09-21T14:35:41;15.60;90.50
4487;DHT22;2256;48.740;9.106;2022-09-21T14:38:17;15.60;87.70
4487;DHT22;2256;48.740;9.106;2022-09-21T14:40:47;15.80;88.80
4487;DHT22;2256;48.740;9.106;2022-09-21T14:43:18;15.60;89.00
4487;DHT22;2256;48.740;9.106;2022-09-21T14:46:02;15.50;89.20
4487;DHT22;2256;48.740;9.106;2022-09-21T14:48:36;15.40;90.30
4487;DHT22;2256;48.740;9.106;2022-09-21T14:51:11;15.50;90.30
4487;DHT22;2256;48.740;9.106;2022-09-21T14:54:01;15.90;90.30
4487;DHT22;2256;48.740;9.106;2022-09-21T14:56:45;16.30;90.00
4487;DHT22;2256;48.740;9.106;2022-09-21T14:59:29;16.60;90.00
4487;DHT22;2256;48.740;9.106;2022-09-21T15:02:12;16.90;89.50
4487;DHT22;2256;48.740;9.106;2022-09-21T15:04:52;17.00;87.70
4487;DHT22;2256;48.740;9.106;2022-09-21T15:07:29;16.90;88.00
4487;DHT22;2256;48.740;9.106;2022-09-21T15:10:24;16.50;87.50
4487;DHT22;2256;48.740;9.106;2022-09-21T15:13:17;15.90;88.80
4487;DHT22;2256;48.740;9.106;2022-09-21T15:15:50;15.40;90.10
4487;DHT22;2256;48.740;9.106;2022-09-21T15:18:23;15.00;90.10
4487;DHT22;2256;48.740;9.106;2022-09-21T15:20:54;15.00;90.70
4487;DHT22;2256;48.740;9.106;2022-09-21T15:23:28;15.10;90.70
4487;DHT22;2256;48.740;9.106;2022-09-21T15:25:58;15.20;90.90
4487;DHT22;2256;48.740;9.106;2022-09-21T15:28:36;15.40;90.00
4487;DHT22;2256;48.740;9.106;2022-09-21T15:31:04;15.20;90.20
4487;DHT22;2256;48.740;9.106;2022-09-21T15:33:36;15.50;90.40
4487;DHT22;2256;48.740;9.106;2022-09-21T15:36:05;15.50;90.30
4487;DHT22;2256;48.740;9.106;2022-09-21T15:38:34;15.50;89.50
4487;DHT22;2256;48.740;9.106;2022-09-21T15:41:03;15.70;89.60
4487;DHT22;2256;48.740;9.106;2022-09-21T15:43:31;15.80;89.20
4487;DHT22;2256;48.740;9.106;2022-09-21T15:46:00;15.80;88.40
4487;DHT22;2256;48.740;9.106;2022-09-21T15:48:29;15.80;86.00
4487;DHT22;2256;48.740;9.106;2022-09-21T15:51:04;15.60;86.10
4487;DHT22;2256;48.740;9.106;2022-09-21T15:53:41;15.40;87.30
4487;DHT22;2256;48.740;9.106;2022-09-21T15:56:16;15.40;88.10
4487;DHT22;2256;48.740;9.106;2022-09-21T15:58:44;15.30;87.40
4487;DHT22;2256;48.740;9.106;2022-09-21T16:01:15;15.40;87.80
4487;DHT22;2256;48.740;9.106;2022-09-21T16:03:44;15.20;88.20
4487;DHT22;2256;48.740;9.106;2022-09-21T16:06:37;15.30;89.40
4487;DHT22;2256;48.740;9.106;2022-09-21T16:09:27;15.30;89.10
4487;DHT22;2256;48.740;9.106;2022-09-21T16:11:55;15.30;88.30
4487;DHT22;2256;48.740;9.106;2022-09-21T16:14:22;15.10;87.50
4487;DHT22;2256;48.740;9.106;2022-09-21T16:17:21;14.90;87.30
4487;DHT22;2256;48.740;9.106;2022-09-21T16:20:13;14.80;87.90
4487;DHT22;2256;48.740;9.106;2022-09-21T16:22:43;14.80;88.50
4487;DHT22;2256;48.740;9.106;2022-09-21T16:25:29;14.70;88.60
4487;DHT22;2256;48.740;9.106;2022-09-21T16:27:59;14.70;89.80
4487;DHT22;2256;48.740;9.106;2022-09-21T16:30:43;14.60;88.70
4487;DHT22;2256;48.740;9.106;2022-09-21T16:33:33;14.60;90.00
4487;DHT22;2256;48.740;9.106;2022-09-21T16:36:01;14.40;90.00
4487;DHT22;2256;48.740;9.106;2022-09-21T16:38:30;14.40;90.00
4487;DHT22;2256;48.740;9.106;2022-09-21T16:41:00;14.20;89.50
4487;DHT22;2256;48.740;9.106;2022-09-21T16:43:27;14.20;90.00
4487;DHT22;2256;48.740;9.106;2022-09-21T16:45:54;14.20;90.20
4487;DHT22;2256;48.740;9.106;2022-09-21T16:48:21;14.10;90.30